Time;durP1;ratioP1;P1;durP2;ratioP2;P2;SDS_P1;SDS_P2;PMS_P1;PMS_P2;Temp;Humidity;BMP_temperature;BMP_pressure;BME280_temperature;BME280_humidity;BME280_pressure;Samples;Min_cycle;Max_cycle;Signal;HPM_P1;HPM_P2
2021/11/06 06:51:45;;;;;;;23.20;19.98;;;;;;;;;;5441175;23;20106;-76
2021/11/06 06:54:15;;;;;;;26.90;20.83;;;;;;;;;;4960629;28;20042;-76
2021/11/06 06:56:43;;;;;;;31.75;23.50;;;;;;;;;;4970827;28;20054;-77
2021/11/06 06:59:10;;;;;;;35.05;26.38;;;;;;;;;;4974478;28;20019;-78
2021/11/06 07:01:36;;;;;;;43.90;30.17;;;;;;;;;;4978564;28;20030;-77
2021/11/06 07:04:20;;;;;;;35.03;25.52;;;;;;;;;;4980956;28;20034;-80
2021/11/06 07:06:50;;;;;;;40.30;28.27;;;;;;;;;;4985968;28;20026;-78
2021/11/06 07:09:16;;;;;;;36.25;26.70;;;;;;;;;;4975858;28;20035;-75
2021/11/06 07:11:42;;;;;;;30.00;22.48;;;;;;;;;;4977552;28;20050;-76
2021/11/06 07:14:09;;;;;;;25.58;20.92;;;;;;;;;;4983898;28;20031;-77
2021/11/06 07:16:35;;;;;;;29.63;21.83;;;;;;;;;;4971723;28;20138;-77
2021/11/06 07:19:02;;;;;;;28.95;22.48;;;;;;;;;;4968219;28;20043;-77
2021/11/06 07:21:28;;;;;;;29.23;22.08;;;;;;;;;;4983312;28;20038;-78
2021/11/06 07:23:54;;;;;;;29.70;23.20;;;;;;;;;;4990497;28;20118;-77
2021/11/06 07:26:20;;;;;;;31.60;23.70;;;;;;;;;;4984919;28;20489;-77
2021/11/06 07:28:46;;;;;;;36.03;26.30;;;;;;;;;;4971263;28;20026;-79
2021/11/06 07:31:13;;;;;;;28.75;22.92;;;;;;;;;;4986643;28;20034;-76
2021/11/06 07:33:39;;;;;;;27.85;22.85;;;;;;;;;;4982325;28;20037;-77
2021/11/06 07:36:05;;;;;;;31.10;23.38;;;;;;;;;;4985035;28;20013;-78
2021/11/06 07:38:31;;;;;;;29.15;23.88;;;;;;;;;;4949123;29;20042;-77
2021/11/06 07:40:57;;;;;;;34.78;23.60;;;;;;;;;;4951422;29;20051;-77
2021/11/06 07:43:24;;;;;;;29.88;21.67;;;;;;;;;;4962865;29;20034;-76
2021/11/06 07:45:50;;;;;;;25.95;21.10;;;;;;;;;;4972561;28;20120;-78
2021/11/06 07:48:16;;;;;;;26.42;21.10;;;;;;;;;;4958080;28;20038;-77
2021/11/06 07:50:49;;;;;;;22.70;19.35;;;;;;;;;;4974491;28;20043;-78
2021/11/06 07:53:42;;;;;;;24.52;19.98;;;;;;;;;;4967999;28;20061;-80
2021/11/06 07:57:01;;;;;;;26.00;21.45;;;;;;;;;;4939901;29;20048;-78
2021/11/06 07:59:36;;;;;;;25.80;20.48;;;;;;;;;;4888834;29;20036;-76
2021/11/06 08:02:04;;;;;;;25.88;20.88;;;;;;;;;;4915267;29;20028;-76
2021/11/06 08:04:33;;;;;;;26.60;21.33;;;;;;;;;;4890508;29;20503;-77
2021/11/06 08:06:59;;;;;;;23.92;20.38;;;;;;;;;;4915749;29;20048;-76
2021/11/06 08:09:27;;;;;;;24.33;19.15;;;;;;;;;;4930423;29;20076;-79
2021/11/06 08:12:00;;;;;;;23.85;19.20;;;;;;;;;;4920601;29;20086;-79
2021/11/06 08:14:35;;;;;;;24.70;18.70;;;;;;;;;;4921637;29;20398;-78
2021/11/06 08:17:02;;;;;;;25.95;19.27;;;;;;;;;;4905991;29;20040;-77
2021/11/06 08:19:29;;;;;;;22.02;18.20;;;;;;;;;;4899858;29;20036;-76
2021/11/06 08:21:55;;;;;;;21.63;17.60;;;;;;;;;;4896195;29;20493;-76
2021/11/06 08:24:23;;;;;;;21.27;17.35;;;;;;;;;;4919813;29;20032;-76
2021/11/06 08:26:52;;;;;;;23.50;18.45;;;;;;;;;;4917372;29;20111;-76
2021/11/06 08:29:19;;;;;;;23.67;18.83;;;;;;;;;;4921964;29;20040;-75
2021/11/06 08:31:45;;;;;;;21.42;17.65;;;;;;;;;;4917326;29;20080;-76
2021/11/06 08:34:13;;;;;;;23.20;18.05;;;;;;;;;;4945790;29;20066;-76
2021/11/06 08:36:39;;;;;;;21.67;17.15;;;;;;;;;;4947131;28;20110;-77
2021/11/06 08:39:06;;;;;;;20.50;17.38;;;;;;;;;;4944859;28;20030;-77
2021/11/06 08:41:33;;;;;;;21.95;18.20;;;;;;;;;;4952690;28;20457;-76
2021/11/06 08:43:59;;;;;;;19.38;17.17;;;;;;;;;;4955449;29;20090;-77
2021/11/06 08:46:25;;;;;;;21.27;16.98;;;;;;;;;;4948141;28;20042;-76
2021/11/06 08:48:52;;;;;;;23.80;16.58;;;;;;;;;;4940851;28;20028;-78
2021/11/06 08:51:18;;;;;;;21.67;17.20;;;;;;;;;;4945532;28;20086;-77
2021/11/06 08:53:47;;;;;;;20.95;18.02;;;;;;;;;;4954542;28;20038;-77
2021/11/06 08:56:28;;;;;;;23.13;19.85;;;;;;;;;;4961724;29;20047;-75
2021/11/06 09:00:00;;;;;;;22.77;19.38;;;;;;;;;;4955555;29;20066;-78
2021/11/06 09:02:55;;;;;;;21.25;17.90;;;;;;;;;;4835022;29;20033;-78
2021/11/06 09:05:27;;;;;;;20.08;16.90;;;;;;;;;;4863089;29;20074;-78
2021/11/06 09:07:54;;;;;;;21.88;16.67;;;;;;;;;;4857003;29;20046;-76
2021/11/06 09:10:21;;;;;;;21.27;16.98;;;;;;;;;;4864271;29;20049;-78
2021/11/06 09:12:47;;;;;;;18.80;16.10;;;;;;;;;;4857653;29;20223;-75
2021/11/06 09:15:14;;;;;;;21.98;17.10;;;;;;;;;;4866554;29;20033;-76
2021/11/06 09:17:40;;;;;;;21.92;16.85;;;;;;;;;;4873411;29;20048;-75
2021/11/06 09:20:09;;;;;;;19.35;16.45;;;;;;;;;;4867134;29;20042;-75
2021/11/06 09:22:36;;;;;;;22.10;17.20;;;;;;;;;;4871389;29;20046;-75
2021/11/06 09:25:02;;;;;;;24.30;17.27;;;;;;;;;;4865206;29;20038;-78
2021/11/06 09:27:28;;;;;;;23.35;18.65;;;;;;;;;;4872859;29;20045;-78
2021/11/06 09:29:54;;;;;;;21.52;18.30;;;;;;;;;;5523168;23;20030;-77
2021/11/06 09:32:21;;;;;;;22.35;18.40;;;;;;;;;;4974368;29;20046;-73
2021/11/06 09:34:49;;;;;;;18.65;16.35;;;;;;;;;;4975193;29;20047;-73
2021/11/06 09:37:18;;;;;;;24.48;18.33;;;;;;;;;;4958903;29;20028;-77
2021/11/06 09:39:44;;;;;;;19.80;17.48;;;;;;;;;;4978704;29;20027;-77
2021/11/06 09:42:10;;;;;;;20.42;16.80;;;;;;;;;;4972377;29;20031;-76
2021/11/06 09:44:51;;;;;;;20.20;17.60;;;;;;;;;;4976727;29;20038;-79
2021/11/06 09:47:43;;;;;;;28.10;17.30;;;;;;;;;;4905088;29;20476;-78
2021/11/06 09:50:12;;;;;;;17.65;14.82;;;;;;;;;;4919519;29;20029;-77
2021/11/06 09:52:56;;;;;;;15.80;13.83;;;;;;;;;;4902076;29;20036;-77
2021/11/06 09:55:28;;;;;;;16.30;13.27;;;;;;;;;;4912271;29;20024;-77
2021/11/06 09:58:46;;;;;;;18.05;15.63;;;;;;;;;;4912998;29;20031;-78
2021/11/06 10:01:38;;;;;;;22.98;16.75;;;;;;;;;;4845129;29;20035;-77
2021/11/06 10:04:29;;;;;;;19.08;15.82;;;;;;;;;;4843846;29;20042;-77
2021/11/06 10:06:59;;;;;;;18.00;15.48;;;;;;;;;;4846008;29;20056;-77
2021/11/06 10:12:15;;;;;;;35.22;26.48;;;;;;;;;;4849045;29;20021;-77
2021/11/06 10:15:01;;;;;;;23.42;18.77;;;;;;;;;;4844509;29;20019;-77
2021/11/06 10:17:44;;;;;;;19.30;15.73;;;;;;;;;;4817379;29;20014;-77
2021/11/06 10:20:34;;;;;;;20.42;15.43;;;;;;;;;;4835117;29;20046;-75
2021/11/06 10:23:41;;;;;;;20.75;16.20;;;;;;;;;;4844981;29;20029;-76
2021/11/06 10:29:29;;;;;;;22.85;15.48;;;;;;;;;;4892633;29;20090;-75
2021/11/06 10:32:35;;;;;;;23.73;15.93;;;;;;;;;;4869087;29;20048;-75
2021/11/06 10:35:26;;;;;;;18.83;15.27;;;;;;;;;;4875603;29;20030;-76
2021/11/06 10:38:06;;;;;;;17.90;15.45;;;;;;;;;;4926964;29;20071;-76
2021/11/06 10:40:48;;;;;;;20.75;14.95;;;;;;;;;;4950147;29;20040;-76
2021/11/06 10:51:13;;;;;;;25.05;15.43;;;;;;;;;;5234006;23;20063;-77
2021/11/06 10:53:42;;;;;;;23.27;17.23;;;;;;;;;;5644952;23;20047;-78
2021/11/06 10:56:16;;;;;;;23.52;19.02;;;;;;;;;;4975856;28;20056;-80
2021/11/06 10:58:42;;;;;;;22.23;16.92;;;;;;;;;;4972333;28;20051;-80
2021/11/06 11:01:12;;;;;;;26.75;19.50;;;;;;;;;;4964289;28;20043;-77
2021/11/06 11:03:39;;;;;;;27.60;19.35;;;;;;;;;;4968811;28;20027;-78
2021/11/06 11:06:17;;;;;;;36.72;28.45;;;;;;;;;;4975913;28;20389;-77
2021/11/06 11:09:03;;;;;;;29.55;22.38;;;;;;;;;;4979833;28;20495;-78
2021/11/06 11:11:35;;;;;;;23.27;17.38;;;;;;;;;;4988216;28;20039;-80
2021/11/06 11:14:23;;;;;;;21.20;17.65;;;;;;;;;;4975952;28;20456;-79
2021/11/06 11:17:01;;;;;;;18.25;15.15;;;;;;;;;;4990295;28;20039;-79
2021/11/06 11:19:45;;;;;;;23.23;17.60;;;;;;;;;;4991752;28;20030;-78
2021/11/06 11:22:31;;;;;;;28.25;22.45;;;;;;;;;;4969385;28;20072;-77
2021/11/06 11:25:03;;;;;;;25.00;22.30;;;;;;;;;;4986226;28;20026;-77
2021/11/06 11:27:57;;;;;;;25.88;21.27;;;;;;;;;;4939811;29;20063;-79
2021/11/06 11:30:31;;;;;;;25.38;21.00;;;;;;;;;;4932373;29;20044;-76
2021/11/06 11:33:01;;;;;;;25.75;21.17;;;;;;;;;;4950165;28;20028;-78
2021/11/06 11:35:28;;;;;;;28.65;21.95;;;;;;;;;;4932939;29;20028;-75
2021/11/06 11:37:57;;;;;;;26.55;19.33;;;;;;;;;;4925614;29;20032;-78
2021/11/06 11:40:26;;;;;;;25.13;18.90;;;;;;;;;;4920057;29;20092;-76
2021/11/06 11:43:14;;;;;;;30.52;24.70;;;;;;;;;;4922530;29;20029;-76
2021/11/06 11:45:49;;;;;;;38.58;25.08;;;;;;;;;;4926343;29;20033;-78
2021/11/06 11:48:21;;;;;;;40.95;29.33;;;;;;;;;;4921296;29;20020;-73
2021/11/06 11:50:47;;;;;;;26.30;20.05;;;;;;;;;;4925971;29;20048;-78
2021/11/06 11:53:29;;;;;;;27.80;20.77;;;;;;;;;;4932019;29;20073;-75
2021/11/06 11:56:05;;;;;;;30.08;21.83;;;;;;;;;;4910325;29;20135;-79
2021/11/06 11:58:36;;;;;;;27.45;19.73;;;;;;;;;;4930763;29;20034;-76
2021/11/06 12:01:03;;;;;;;46.30;32.58;;;;;;;;;;4946485;29;20092;-78
2021/11/06 12:03:32;;;;;;;56.72;37.83;;;;;;;;;;4962938;28;20513;-74
2021/11/06 12:05:58;;;;;;;39.47;25.35;;;;;;;;;;4964948;28;20039;-76
2021/11/06 12:08:43;;;;;;;31.20;23.42;;;;;;;;;;4963420;29;20015;-77
2021/11/06 12:11:23;;;;;;;27.48;20.50;;;;;;;;;;4945977;29;20082;-78
2021/11/06 12:13:54;;;;;;;29.38;21.83;;;;;;;;;;4960179;29;20023;-77
2021/11/06 12:16:24;;;;;;;21.15;18.02;;;;;;;;;;4953987;29;20027;-76
2021/11/06 12:19:01;;;;;;;21.95;18.50;;;;;;;;;;4958405;28;20034;-75
2021/11/06 12:21:31;;;;;;;21.98;18.38;;;;;;;;;;4959007;29;20042;-76
2021/11/06 12:23:58;;;;;;;22.50;16.83;;;;;;;;;;4977232;28;20035;-78
2021/11/06 12:26:24;;;;;;;24.50;20.30;;;;;;;;;;4974018;28;20015;-78
2021/11/06 12:28:51;;;;;;;22.45;18.90;;;;;;;;;;4972970;29;20034;-76
2021/11/06 12:31:22;;;;;;;23.65;18.40;;;;;;;;;;4959229;29;20150;-76
2021/11/06 12:33:48;;;;;;;26.45;20.73;;;;;;;;;;4967808;28;20035;-79
2021/11/06 12:36:22;;;;;;;28.80;23.08;;;;;;;;;;4964332;28;20050;-77
2021/11/06 12:38:49;;;;;;;44.63;39.58;;;;;;;;;;4957490;29;20405;-75
2021/11/06 12:41:25;;;;;;;47.85;41.13;;;;;;;;;;4960096;28;20131;-77
2021/11/06 12:43:54;;;;;;;46.45;38.35;;;;;;;;;;4963095;29;20023;-77
2021/11/06 12:46:26;;;;;;;42.85;34.85;;;;;;;;;;4964199;29;20027;-74
2021/11/06 12:48:55;;;;;;;37.50;31.25;;;;;;;;;;4961794;28;20477;-76
2021/11/06 12:51:26;;;;;;;34.42;27.40;;;;;;;;;;4940428;29;20125;-77
2021/11/06 12:53:55;;;;;;;34.58;26.80;;;;;;;;;;4941241;29;20070;-76
2021/11/06 12:57:15;;;;;;;32.22;26.08;;;;;;;;;;4959946;28;20031;-75
2021/11/06 12:59:43;;;;;;;51.97;35.25;;;;;;;;;;4954392;28;20092;-76
2021/11/06 13:02:09;;;;;;;50.22;35.97;;;;;;;;;;4960466;28;20599;-73
2021/11/06 13:04:36;;;;;;;41.47;32.58;;;;;;;;;;4960924;28;20027;-75
2021/11/06 13:07:04;;;;;;;41.15;29.05;;;;;;;;;;4961176;28;20980;-75
2021/11/06 13:09:36;;;;;;;35.45;28.73;;;;;;;;;;4963243;29;20035;-77
2021/11/06 13:12:32;;;;;;;46.92;35.20;;;;;;;;;;4963411;29;20019;-76
2021/11/06 13:15:02;;;;;;;43.35;32.55;;;;;;;;;;4957112;29;20047;-77
2021/11/06 13:17:30;;;;;;;43.65;34.78;;;;;;;;;;4944955;29;20110;-76
2021/11/06 13:20:00;;;;;;;46.67;32.13;;;;;;;;;;4957390;29;20034;-76
2021/11/06 13:22:26;;;;;;;39.75;31.77;;;;;;;;;;4943423;29;20049;-77
2021/11/06 13:24:55;;;;;;;45.75;34.88;;;;;;;;;;4959067;29;20493;-72
2021/11/06 13:27:42;;;;;;;42.25;33.28;;;;;;;;;;4957022;28;20405;-77
2021/11/06 13:30:30;;;;;;;35.88;28.58;;;;;;;;;;4959075;28;20027;-79
2021/11/06 13:33:17;;;;;;;34.17;26.08;;;;;;;;;;4924006;29;20494;-76
2021/11/06 13:35:59;;;;;;;35.50;27.50;;;;;;;;;;4967182;28;20023;-75
2021/11/06 13:38:47;;;;;;;40.78;31.33;;;;;;;;;;4979989;28;20086;-79
2021/11/06 13:41:20;;;;;;;42.20;31.95;;;;;;;;;;4967981;29;20041;-72
2021/11/06 13:43:48;;;;;;;42.72;31.50;;;;;;;;;;4957219;29;20034;-72
2021/11/06 13:46:33;;;;;;;38.47;31.23;;;;;;;;;;4967074;28;20511;-75
2021/11/06 13:49:28;;;;;;;37.95;29.88;;;;;;;;;;4955216;28;20406;-75
2021/11/06 13:51:54;;;;;;;43.35;32.45;;;;;;;;;;4959210;28;20121;-74
2021/11/06 13:54:48;;;;;;;39.78;31.02;;;;;;;;;;4970430;28;20119;-78
2021/11/06 13:57:37;;;;;;;48.42;37.20;;;;;;;;;;4981731;28;20409;-78
2021/11/06 14:00:03;;;;;;;43.35;33.58;;;;;;;;;;4981197;28;20035;-77
2021/11/06 14:02:32;;;;;;;38.78;31.40;;;;;;;;;;4971757;29;20030;-79
2021/11/06 14:05:06;;;;;;;76.07;50.95;;;;;;;;;;4950999;29;20047;-77
2021/11/06 14:08:05;;;;;;;58.05;46.97;;;;;;;;;;4962888;29;20046;-77
2021/11/06 14:10:34;;;;;;;46.50;34.88;;;;;;;;;;4952531;29;20071;-73
2021/11/06 14:13:10;;;;;;;52.63;40.83;;;;;;;;;;4963351;28;20034;-77
2021/11/06 14:15:42;;;;;;;57.90;45.08;;;;;;;;;;4952388;29;20378;-77
2021/11/06 14:18:13;;;;;;;77.90;60.78;;;;;;;;;;4965969;28;20046;-76
2021/11/06 14:20:48;;;;;;;75.28;58.45;;;;;;;;;;4967551;28;20027;-79
2021/11/06 14:23:39;;;;;;;59.15;46.00;;;;;;;;;;4964920;29;20032;-75
2021/11/06 14:26:15;;;;;;;55.75;42.55;;;;;;;;;;4926181;28;20114;-75
2021/11/06 14:29:10;;;;;;;66.93;47.67;;;;;;;;;;4958242;28;20051;-77
2021/11/06 14:31:39;;;;;;;65.65;44.60;;;;;;;;;;4962318;29;20086;-76
2021/11/06 14:34:25;;;;;;;91.30;58.75;;;;;;;;;;4963021;28;20177;-76
2021/11/06 14:37:08;;;;;;;140.50;85.72;;;;;;;;;;4963937;28;20579;-76
2021/11/06 14:39:40;;;;;;;100.05;61.47;;;;;;;;;;4963432;29;20043;-76
2021/11/06 14:42:08;;;;;;;57.13;41.73;;;;;;;;;;4957272;28;20023;-79
2021/11/06 14:44:37;;;;;;;56.45;42.45;;;;;;;;;;4966426;29;20019;-78
2021/11/06 14:47:28;;;;;;;129.05;105.03;;;;;;;;;;4942906;29;20043;-76
2021/11/06 14:49:55;;;;;;;70.03;52.00;;;;;;;;;;4958852;29;20035;-71
2021/11/06 14:52:27;;;;;;;62.00;45.47;;;;;;;;;;4958213;28;20031;-76
2021/11/06 14:54:56;;;;;;;63.55;44.58;;;;;;;;;;4961181;28;20495;-76
2021/11/06 14:57:27;;;;;;;66.45;48.38;;;;;;;;;;4955670;29;20106;-75
2021/11/06 15:00:11;;;;;;;62.55;43.42;;;;;;;;;;4961010;28;20378;-75
2021/11/06 15:02:39;;;;;;;61.55;43.95;;;;;;;;;;4954357;28;20063;-76
2021/11/06 15:05:08;;;;;;;60.78;43.53;;;;;;;;;;4955497;28;20429;-75
2021/11/06 15:07:35;;;;;;;61.75;42.40;;;;;;;;;;4955989;29;20069;-74
2021/11/06 15:10:02;;;;;;;55.25;41.15;;;;;;;;;;4953742;28;20120;-74
2021/11/06 15:12:28;;;;;;;56.80;42.60;;;;;;;;;;4958590;29;20034;-75
2021/11/06 15:14:57;;;;;;;49.65;36.70;;;;;;;;;;4965429;28;20031;-77
2021/11/06 15:17:23;;;;;;;42.78;32.15;;;;;;;;;;4968366;28;20053;-76
2021/11/06 15:19:51;;;;;;;39.30;29.50;;;;;;;;;;4958920;28;20019;-77
2021/11/06 15:22:25;;;;;;;39.95;31.63;;;;;;;;;;4964340;29;20027;-75
2021/11/06 15:24:52;;;;;;;43.15;31.35;;;;;;;;;;4957271;28;20046;-78
2021/11/06 15:27:18;;;;;;;39.72;31.15;;;;;;;;;;4956925;29;20023;-75
2021/11/06 15:29:44;;;;;;;47.88;35.90;;;;;;;;;;4962008;29;20033;-79
2021/11/06 15:32:13;;;;;;;68.70;48.25;;;;;;;;;;4962832;29;20485;-75
2021/11/06 15:34:39;;;;;;;63.08;43.08;;;;;;;;;;4939948;29;20019;-76
2021/11/06 15:37:05;;;;;;;54.50;37.58;;;;;;;;;;4962933;28;20027;-78
2021/11/06 15:39:31;;;;;;;49.78;35.67;;;;;;;;;;4960297;29;20038;-76
2021/11/06 15:41:58;;;;;;;44.30;31.98;;;;;;;;;;4959064;29;20053;-75
2021/11/06 15:44:25;;;;;;;50.45;35.30;;;;;;;;;;4957623;28;20055;-74
2021/11/06 15:46:51;;;;;;;44.90;32.70;;;;;;;;;;4957986;28;20392;-77
2021/11/06 15:49:19;;;;;;;48.90;34.28;;;;;;;;;;4953704;29;20035;-76
2021/11/06 15:54:14;;;;;;;47.58;35.05;;;;;;;;;;4959318;29;20051;-74
2021/11/06 15:56:40;;;;;;;45.55;32.22;;;;;;;;;;4960812;28;20055;-76
2021/11/06 15:59:08;;;;;;;34.75;27.88;;;;;;;;;;4943126;29;20042;-76
2021/11/06 16:01:37;;;;;;;39.67;30.15;;;;;;;;;;4957582;28;20074;-76
2021/11/06 16:04:04;;;;;;;45.58;32.45;;;;;;;;;;4960515;29;20094;-78
2021/11/06 16:06:30;;;;;;;41.05;31.15;;;;;;;;;;4965831;29;20083;-76
2021/11/06 16:08:56;;;;;;;48.47;35.65;;;;;;;;;;4959347;28;20036;-76
2021/11/06 16:11:23;;;;;;;43.83;33.65;;;;;;;;;;4987293;23;20413;-76
2021/11/06 16:13:49;;;;;;;50.28;35.70;;;;;;;;;;4953061;29;20027;-74
2021/11/06 16:16:21;;;;;;;45.28;34.60;;;;;;;;;;4955584;28;20556;-77
2021/11/06 16:18:52;;;;;;;48.08;35.03;;;;;;;;;;4956198;29;20488;-74
2021/11/06 16:21:23;;;;;;;46.97;35.15;;;;;;;;;;4957534;28;20050;-74
2021/11/06 16:23:50;;;;;;;47.95;34.70;;;;;;;;;;4974729;28;20019;-74
2021/11/06 16:26:17;;;;;;;47.17;35.58;;;;;;;;;;4955891;28;20034;-75
2021/11/06 16:28:45;;;;;;;48.83;37.38;;;;;;;;;;4971495;28;20034;-76
2021/11/06 16:31:11;;;;;;;48.40;35.42;;;;;;;;;;4961788;28;20436;-76
2021/11/06 16:33:37;;;;;;;48.85;37.42;;;;;;;;;;4958205;28;20037;-74
2021/11/06 16:36:05;;;;;;;41.95;32.53;;;;;;;;;;4967557;28;20087;-74
2021/11/06 16:38:32;;;;;;;55.45;35.97;;;;;;;;;;4952002;28;20062;-74
2021/11/06 16:40:58;;;;;;;56.17;39.38;;;;;;;;;;4967228;28;20025;-76
2021/11/06 16:43:24;;;;;;;48.22;34.42;;;;;;;;;;4946131;28;20385;-74
2021/11/06 16:45:51;;;;;;;45.65;33.72;;;;;;;;;;4960530;28;20035;-73
2021/11/06 16:48:17;;;;;;;44.55;35.17;;;;;;;;;;4965232;28;20480;-74
2021/11/06 16:50:44;;;;;;;50.55;37.35;;;;;;;;;;4950862;28;20039;-74
2021/11/06 16:53:10;;;;;;;50.55;38.22;;;;;;;;;;4959001;28;20098;-74
2021/11/06 16:55:36;;;;;;;49.38;38.15;;;;;;;;;;4961154;28;20028;-74
2021/11/06 16:58:04;;;;;;;50.45;38.85;;;;;;;;;;4970033;28;20469;-74
2021/11/06 17:00:30;;;;;;;54.22;38.83;;;;;;;;;;4948893;28;20038;-74
2021/11/06 17:02:56;;;;;;;49.08;36.00;;;;;;;;;;4946657;28;20094;-74
2021/11/06 17:05:23;;;;;;;55.42;39.65;;;;;;;;;;4950962;28;20050;-75
2021/11/06 17:07:52;;;;;;;59.28;41.20;;;;;;;;;;4950196;28;20066;-74
2021/11/06 17:10:32;;;;;;;60.47;45.25;;;;;;;;;;4945575;28;21754;-73
2021/11/06 17:12:58;;;;;;;57.45;43.38;;;;;;;;;;4947634;28;20030;-77
2021/11/06 17:15:24;;;;;;;53.05;39.35;;;;;;;;;;4956709;28;20030;-76
2021/11/06 17:17:50;;;;;;;48.40;36.38;;;;;;;;;;4951755;29;20031;-76
2021/11/06 17:20:17;;;;;;;45.42;35.28;;;;;;;;;;4951343;29;20079;-76
2021/11/06 17:22:45;;;;;;;54.95;40.58;;;;;;;;;;4951327;28;20038;-76
2021/11/06 17:25:11;;;;;;;61.08;46.05;;;;;;;;;;4938854;29;20050;-76
2021/11/06 17:27:38;;;;;;;54.08;40.42;;;;;;;;;;4945245;29;20019;-76
2021/11/06 17:30:05;;;;;;;44.58;32.97;;;;;;;;;;4947846;29;20090;-75
2021/11/06 17:32:31;;;;;;;39.58;29.88;;;;;;;;;;4949395;29;20031;-75
2021/11/06 17:34:57;;;;;;;39.33;29.05;;;;;;;;;;4944043;28;20164;-76
2021/11/06 17:37:23;;;;;;;35.40;29.48;;;;;;;;;;4945772;28;20036;-76
2021/11/06 17:39:49;;;;;;;43.58;32.78;;;;;;;;;;4950661;28;20028;-76
2021/11/06 17:42:15;;;;;;;49.28;38.35;;;;;;;;;;4942886;28;20096;-76
2021/11/06 17:44:42;;;;;;;56.38;43.13;;;;;;;;;;4953533;28;20031;-75
2021/11/06 17:47:08;;;;;;;64.00;47.60;;;;;;;;;;4944724;29;20035;-76
2021/11/06 17:49:41;;;;;;;58.15;44.58;;;;;;;;;;4942238;29;20036;-76
2021/11/06 17:52:10;;;;;;;68.97;50.03;;;;;;;;;;4945820;28;20507;-75
2021/11/06 17:54:38;;;;;;;54.58;41.05;;;;;;;;;;4949823;29;20031;-76
2021/11/06 17:57:04;;;;;;;55.95;40.97;;;;;;;;;;4952514;28;20054;-76
2021/11/06 17:59:30;;;;;;;66.07;49.53;;;;;;;;;;4949260;28;20082;-76
2021/11/06 18:01:57;;;;;;;66.45;50.95;;;;;;;;;;4953177;29;20031;-76
2021/11/06 18:04:23;;;;;;;63.88;47.10;;;;;;;;;;4944307;29;20028;-76
2021/11/06 18:06:49;;;;;;;67.70;49.13;;;;;;;;;;4952706;28;20426;-76
2021/11/06 18:09:15;;;;;;;78.78;57.97;;;;;;;;;;4952459;28;20376;-77
2021/11/06 18:11:42;;;;;;;81.40;58.13;;;;;;;;;;4969023;28;20129;-76
2021/11/06 18:14:08;;;;;;;53.30;41.13;;;;;;;;;;4970027;28;20125;-76
2021/11/06 18:16:34;;;;;;;51.22;38.70;;;;;;;;;;4954868;28;20033;-76
2021/11/06 18:19:00;;;;;;;48.10;37.95;;;;;;;;;;4957376;28;20069;-76
2021/11/06 18:21:26;;;;;;;55.58;43.00;;;;;;;;;;4972301;28;20023;-77
2021/11/06 18:23:53;;;;;;;55.97;42.60;;;;;;;;;;4977048;28;20026;-77
2021/11/06 18:26:19;;;;;;;75.60;56.47;;;;;;;;;;4980271;28;20023;-77
2021/11/06 18:28:45;;;;;;;58.55;44.38;;;;;;;;;;4969718;28;20039;-77
2021/11/06 18:31:12;;;;;;;51.53;38.75;;;;;;;;;;4955445;28;20141;-77
2021/11/06 18:33:39;;;;;;;53.17;41.13;;;;;;;;;;4960829;28;20565;-77
2021/11/06 18:36:06;;;;;;;59.55;46.45;;;;;;;;;;4979629;28;20030;-77
2021/11/06 18:38:32;;;;;;;59.75;48.03;;;;;;;;;;4979579;28;20015;-78
2021/11/06 18:46:19;;;;;;;50.30;39.40;;;;;;;;;;6002099;23;20034;-77
2021/11/06 18:48:51;;;;;;;51.28;40.30;;;;;;;;;;4959154;28;20054;-74
2021/11/06 18:51:18;;;;;;;49.58;38.85;;;;;;;;;;4966741;29;20047;-76
2021/11/06 18:53:44;;;;;;;61.35;46.00;;;;;;;;;;4969784;28;20031;-77
2021/11/06 18:56:11;;;;;;;70.57;52.38;;;;;;;;;;4973336;29;20058;-75
2021/11/06 18:58:37;;;;;;;78.32;56.75;;;;;;;;;;4967746;28;20039;-75
2021/11/06 19:01:11;;;;;;;54.28;42.60;;;;;;;;;;4973546;29;20035;-79
2021/11/06 19:04:05;;;;;;;49.35;39.55;;;;;;;;;;4977649;28;20034;-81
2021/11/06 19:06:40;;;;;;;50.60;37.40;;;;;;;;;;4976610;28;20023;-80
2021/11/06 19:09:13;;;;;;;38.45;30.95;;;;;;;;;;4971485;28;20032;-79
2021/11/06 19:11:52;;;;;;;37.17;29.10;;;;;;;;;;5120576;23;20062;-78
2021/11/06 19:14:23;;;;;;;36.13;29.40;;;;;;;;;;4977203;28;20031;-81
2021/11/06 19:17:09;;;;;;;33.15;27.08;;;;;;;;;;4967597;29;20054;-76
2021/11/06 19:19:35;;;;;;;35.85;28.88;;;;;;;;;;4937817;29;20039;-79
2021/11/06 19:22:03;;;;;;;34.30;25.50;;;;;;;;;;4930950;29;20118;-80
2021/11/06 19:24:30;;;;;;;33.85;26.90;;;;;;;;;;4939059;29;20050;-77
2021/11/06 19:27:31;;;;;;;37.40;27.98;;;;;;;;;;4957974;23;20149;-81
2021/11/06 19:30:03;;;;;;;34.20;25.48;;;;;;;;;;4989784;28;20038;-80
2021/11/06 19:32:29;;;;;;;36.90;27.63;;;;;;;;;;4953521;29;20050;-78
2021/11/06 19:34:56;;;;;;;36.58;28.38;;;;;;;;;;4939075;29;20043;-78
2021/11/06 19:37:28;;;;;;;41.05;31.13;;;;;;;;;;4931809;29;20481;-78
2021/11/06 19:39:58;;;;;;;39.83;29.75;;;;;;;;;;4910430;29;20032;-79
2021/11/06 19:42:24;;;;;;;38.30;29.50;;;;;;;;;;4910829;29;20041;-75
2021/11/06 19:44:50;;;;;;;33.90;26.40;;;;;;;;;;4914365;29;20574;-76
2021/11/06 19:47:17;;;;;;;29.17;22.92;;;;;;;;;;4915380;29;20047;-76
2021/11/06 19:49:43;;;;;;;32.05;24.75;;;;;;;;;;4918295;29;20043;-75
2021/11/06 19:52:10;;;;;;;37.20;28.10;;;;;;;;;;4917964;29;20043;-76
2021/11/06 19:54:37;;;;;;;35.15;29.08;;;;;;;;;;4917937;29;20024;-74
2021/11/06 19:57:12;;;;;;;42.15;30.08;;;;;;;;;;4915046;29;20152;-78
2021/11/06 19:59:38;;;;;;;50.92;35.47;;;;;;;;;;4914535;29;20044;-77
2021/11/06 20:02:04;;;;;;;54.45;35.35;;;;;;;;;;4920629;29;20036;-76
2021/11/06 20:04:30;;;;;;;35.00;28.17;;;;;;;;;;4904456;29;20035;-76
2021/11/06 20:07:00;;;;;;;35.63;27.55;;;;;;;;;;4921701;29;20063;-79
2021/11/06 20:09:35;;;;;;;38.00;28.77;;;;;;;;;;4932263;29;20082;-79
2021/11/06 20:12:05;;;;;;;42.67;32.88;;;;;;;;;;4924101;29;20126;-76
2021/11/06 20:14:31;;;;;;;40.03;31.15;;;;;;;;;;4930285;29;20084;-77
2021/11/06 20:16:58;;;;;;;36.17;29.02;;;;;;;;;;4938485;29;20028;-77
2021/11/06 20:19:25;;;;;;;37.25;27.92;;;;;;;;;;4936823;29;20036;-77
2021/11/06 20:21:52;;;;;;;37.28;29.15;;;;;;;;;;4924491;29;20054;-77
2021/11/06 20:24:19;;;;;;;38.83;30.55;;;;;;;;;;4959853;29;20004;-77
2021/11/06 20:26:49;;;;;;;45.45;32.33;;;;;;;;;;4957119;29;20090;-78
2021/11/06 20:29:15;;;;;;;40.90;32.50;;;;;;;;;;4950666;29;20109;-79
2021/11/06 20:31:42;;;;;;;34.53;27.10;;;;;;;;;;4951312;29;20050;-78
2021/11/06 20:34:09;;;;;;;34.20;29.20;;;;;;;;;;4968978;28;20031;-79
2021/11/06 20:36:35;;;;;;;33.72;28.65;;;;;;;;;;4967579;28;20027;-79
2021/11/06 20:39:02;;;;;;;32.08;26.10;;;;;;;;;;4945273;29;20442;-79
2021/11/06 20:41:28;;;;;;;29.13;22.85;;;;;;;;;;4961329;29;20034;-79
2021/11/06 20:43:55;;;;;;;30.77;24.05;;;;;;;;;;4972141;28;20019;-78
2021/11/06 20:46:21;;;;;;;28.00;21.52;;;;;;;;;;4954965;29;20043;-78
2021/11/06 20:48:47;;;;;;;27.15;19.67;;;;;;;;;;4969743;29;20504;-78
2021/11/06 20:51:13;;;;;;;30.35;21.08;;;;;;;;;;4969687;29;20062;-79
2021/11/06 20:53:41;;;;;;;23.48;19.23;;;;;;;;;;4953371;29;20042;-78
2021/11/06 20:56:18;;;;;;;27.35;21.60;;;;;;;;;;4978254;28;20039;-78
2021/11/06 20:58:44;;;;;;;29.48;23.10;;;;;;;;;;4956663;29;20038;-80
2021/11/06 21:01:10;;;;;;;33.22;25.73;;;;;;;;;;4973130;29;20027;-78
2021/11/06 21:03:38;;;;;;;33.38;25.95;;;;;;;;;;4952691;29;20035;-78
2021/11/06 21:06:04;;;;;;;36.08;27.83;;;;;;;;;;4971397;28;20027;-78
2021/11/06 21:08:35;;;;;;;50.38;34.28;;;;;;;;;;4973517;29;20027;-79
2021/11/06 21:11:30;;;;;;;66.15;43.05;;;;;;;;;;4957339;29;20075;-79
2021/11/06 21:19:02;;;;;;;33.53;26.65;;;;;;;;;;4968216;29;20034;-79
2021/11/06 21:21:28;;;;;;;37.05;27.70;;;;;;;;;;4955697;28;20034;-78
2021/11/06 21:23:59;;;;;;;34.33;26.90;;;;;;;;;;4976721;29;20035;-80
2021/11/06 21:26:33;;;;;;;36.97;27.20;;;;;;;;;;4973862;28;20027;-79
2021/11/06 21:28:59;;;;;;;39.45;29.70;;;;;;;;;;4960420;29;20085;-79
2021/11/06 21:31:25;;;;;;;36.38;27.98;;;;;;;;;;4976867;29;20027;-78
2021/11/06 21:33:54;;;;;;;42.30;29.70;;;;;;;;;;4973958;29;20035;-78
2021/11/06 21:36:28;;;;;;;40.92;30.27;;;;;;;;;;4964306;29;20359;-77
2021/11/06 21:39:08;;;;;;;37.72;29.80;;;;;;;;;;4958157;29;20046;-79
2021/11/06 21:41:43;;;;;;;39.58;30.05;;;;;;;;;;4978468;29;20054;-79
2021/11/06 21:44:17;;;;;;;42.45;30.15;;;;;;;;;;4960334;29;20059;-79
2021/11/06 21:46:50;;;;;;;49.08;33.92;;;;;;;;;;4948929;29;20035;-79
2021/11/06 21:49:24;;;;;;;45.25;32.78;;;;;;;;;;4984156;28;20015;-79
2021/11/06 21:51:51;;;;;;;46.70;33.50;;;;;;;;;;4964200;29;20035;-78
2021/11/06 21:54:18;;;;;;;45.85;33.78;;;;;;;;;;4963415;29;20021;-79
2021/11/06 21:56:53;;;;;;;55.50;38.40;;;;;;;;;;4961607;29;20031;-77
2021/11/06 21:59:20;;;;;;;51.17;37.00;;;;;;;;;;4968829;28;20023;-79